createdAt,value
2019-04-06T00:01:33.851Z,99049.97
2019-04-06T00:04:00.176Z,99054.92
2019-04-06T00:06:26.466Z,99060.11
2019-04-06T00:08:52.638Z,99050.47
2019-04-06T00:11:18.837Z,99052.03
2019-04-06T00:13:45.149Z,99049.16
2019-04-06T00:16:11.440Z,99052.45
2019-04-06T00:18:37.744Z,99047.97
2019-04-06T00:21:03.909Z,99052.47
2019-04-06T00:23:30.175Z,99046.03
2019-04-06T00:25:56.365Z,99042.26
2019-04-06T00:28:22.673Z,99038.34
2019-04-06T00:30:56.385Z,99037.66
2019-04-06T00:33:27.456Z,99039.10
2019-04-06T00:35:53.634Z,99036.44
2019-04-06T00:38:19.896Z,99032.36
2019-04-06T00:40:46.219Z,99033.40
2019-04-06T00:43:12.394Z,99026.53
2019-04-06T00:45:38.673Z,99026.74
2019-04-06T00:48:04.895Z,99028.10
2019-04-06T00:50:31.074Z,99019.95
2019-04-06T00:52:57.357Z,99026.34
2019-04-06T00:55:23.733Z,99021.09
2019-04-06T00:57:50.019Z,99012.07
2019-04-06T01:00:16.755Z,99015.56
2019-04-06T01:02:43.090Z,99014.02
2019-04-06T01:05:09.431Z,99016.30
2019-04-06T01:07:35.748Z,99012.67
2019-04-06T01:10:01.991Z,99015.47
2019-04-06T01:12:28.161Z,99010.39
2019-04-06T01:14:55.130Z,99005.37
2019-04-06T01:17:21.492Z,99006.26
2019-04-06T01:19:47.759Z,99004.81
2019-04-06T01:22:13.913Z,99009.91
2019-04-06T01:24:40.120Z,99004.68
2019-04-06T01:27:06.288Z,99009.16
2019-04-06T01:29:32.472Z,99003.95
2019-04-06T01:31:58.797Z,99002.47
2019-04-06T01:34:25.172Z,98999.83
2019-04-06T01:36:51.464Z,98989.59
2019-04-06T01:39:17.680Z,98990.56
2019-04-06T01:41:43.970Z,98986.96
2019-04-06T01:44:10.254Z,98982.13
2019-04-06T01:46:36.468Z,98982.13
2019-04-06T01:49:02.744Z,98980.28
2019-04-06T01:51:28.911Z,98976.09
2019-04-06T01:53:55.103Z,98977.99
2019-04-06T01:56:21.397Z,98973.70
2019-04-06T01:58:47.572Z,98967.56
2019-04-06T02:01:15.669Z,98965.27
2019-04-06T02:03:41.850Z,98970.04
2019-04-06T02:06:08.135Z,98965.82
2019-04-06T02:08:34.432Z,98965.02
2019-04-06T02:11:00.618Z,98966.42
2019-04-06T02:13:26.898Z,98973.16
2019-04-06T02:15:53.354Z,98963.56
2019-04-06T02:18:19.699Z,98964.25
2019-04-06T02:20:45.920Z,98970.02
2019-04-06T02:23:12.184Z,98964.49
2019-04-06T02:25:39.175Z,98969.85
2019-04-06T02:28:05.764Z,98969.16
2019-04-06T02:30:36.787Z,98966.28
2019-04-06T02:33:21.242Z,98968.58
2019-04-06T02:35:49.369Z,98970.52
2019-04-06T02:38:35.857Z,98973.75
2019-04-06T02:41:06.769Z,98970.70
2019-04-06T02:43:34.986Z,98980.27
2019-04-06T02:46:01.254Z,98978.06
2019-04-06T02:48:27.647Z,98978.71
2019-04-06T02:50:53.824Z,98971.16
2019-04-06T02:53:20.025Z,98971.28
2019-04-06T02:55:46.304Z,98975.89
2019-04-06T02:58:12.490Z,98976.05
2019-04-06T03:00:38.694Z,98979.08
2019-04-06T03:03:04.866Z,98974.70
2019-04-06T03:05:31.028Z,98971.22
2019-04-06T03:07:57.208Z,98977.43
2019-04-06T03:10:23.428Z,98973.13
2019-04-06T03:12:49.700Z,98974.68
2019-04-06T03:15:15.877Z,98974.17
2019-04-06T03:17:42.403Z,98972.32
2019-04-06T03:20:08.980Z,98975.95
2019-04-06T03:22:35.325Z,98976.42
2019-04-06T03:25:01.559Z,98977.36
2019-04-06T03:27:27.698Z,98963.77
2019-04-06T03:29:58.347Z,98976.81
2019-04-06T03:32:22.017Z,98970.66
2019-04-06T03:34:48.195Z,98981.30
2019-04-06T03:37:14.373Z,98983.80
2019-04-06T03:39:40.567Z,98983.13
2019-04-06T03:42:10.356Z,98990.48
2019-04-06T03:44:35.113Z,98990.45
2019-04-06T03:47:01.328Z,98995.09
2019-04-06T03:49:27.528Z,98992.83
2019-04-06T03:51:53.648Z,98989.25
2019-04-06T03:54:19.981Z,98987.20
2019-04-06T03:56:46.398Z,99003.61
2019-04-06T03:59:12.714Z,98997.56
2019-04-06T04:01:38.912Z,98998.39
2019-04-06T04:04:05.082Z,98993.31
2019-04-06T04:06:31.353Z,99000.19
2019-04-06T04:08:57.566Z,98991.93
2019-04-06T04:11:24.023Z,98989.23
2019-04-06T04:13:50.224Z,98997.91
2019-04-06T04:16:16.444Z,98998.34
2019-04-06T04:18:42.938Z,99003.11
2019-04-06T04:21:09.109Z,99000.70
2019-04-06T04:23:35.420Z,98997.86
2019-04-06T04:26:01.707Z,99001.39
2019-04-06T04:28:27.857Z,98992.80
2019-04-06T04:30:54.218Z,98989.70
2019-04-06T04:33:20.441Z,98997.17
2019-04-06T04:35:46.786Z,98986.13
2019-04-06T04:38:13.211Z,99000.16
2019-04-06T04:40:39.370Z,98995.29
2019-04-06T04:43:05.673Z,98999.17
2019-04-06T04:45:31.874Z,99007.31
2019-04-06T04:47:58.082Z,99009.23
2019-04-06T04:50:24.382Z,99004.98
2019-04-06T04:52:50.590Z,99017.59
2019-04-06T04:55:16.770Z,99001.41
2019-04-06T04:57:45.091Z,98997.90
2019-04-06T05:00:11.782Z,98986.59
2019-04-06T05:02:38.016Z,98986.27
2019-04-06T05:05:05.383Z,99006.55
2019-04-06T05:07:31.586Z,99001.11
2019-04-06T05:09:57.760Z,98998.59
2019-04-06T05:12:23.937Z,98994.66
2019-04-06T05:15:03.482Z,99012.95
2019-04-06T05:17:30.062Z,99019.81
2019-04-06T05:19:56.446Z,99018.90
2019-04-06T05:22:22.767Z,99023.30
2019-04-06T05:24:48.929Z,99024.20
2019-04-06T05:27:15.223Z,99021.84
2019-04-06T05:29:41.530Z,99012.88
2019-04-06T05:32:07.693Z,99017.06
2019-04-06T05:34:33.862Z,99010.75
2019-04-06T05:37:00.199Z,99009.03
2019-04-06T05:39:26.490Z,99012.05
2019-04-06T05:41:52.747Z,99013.41
2019-04-06T05:44:18.935Z,99009.27
2019-04-06T05:46:45.284Z,99016.06
2019-04-06T05:49:11.518Z,99018.73
2019-04-06T05:51:37.850Z,99018.25
2019-04-06T05:54:04.038Z,99010.28
2019-04-06T05:56:30.325Z,99017.47
2019-04-06T05:58:59.843Z,99011.69
2019-04-06T06:01:26.109Z,99012.92
2019-04-06T06:03:52.398Z,99011.38
2019-04-06T06:06:18.581Z,99011.08
2019-04-06T06:08:44.755Z,99006.47
2019-04-06T06:11:11.031Z,99009.82
2019-04-06T06:13:39.167Z,99009.88
2019-04-06T06:16:05.427Z,99001.00
2019-04-06T06:18:32.471Z,99006.32
2019-04-06T06:20:58.740Z,99008.71
2019-04-06T06:23:24.917Z,99013.25
2019-04-06T06:25:51.263Z,99015.08
2019-04-06T06:28:19.412Z,99023.85
2019-04-06T06:30:45.590Z,99024.64
2019-04-06T06:33:11.784Z,99033.54
2019-04-06T06:35:38.113Z,99030.52
2019-04-06T06:38:05.233Z,99029.36
2019-04-06T06:40:31.407Z,99036.53
2019-04-06T06:42:57.717Z,99032.53
2019-04-06T06:45:23.884Z,99032.72
2019-04-06T06:47:53.041Z,99034.20
2019-04-06T06:50:19.262Z,99041.98
2019-04-06T06:52:45.571Z,99051.89
2019-04-06T06:55:11.904Z,99040.53
2019-04-06T06:57:38.221Z,99040.69
2019-04-06T07:00:05.305Z,99041.08
2019-04-06T07:02:31.564Z,99041.53
2019-04-06T07:04:57.758Z,99038.45
2019-04-06T07:07:23.938Z,99032.72
2019-04-06T07:09:50.187Z,99040.27
2019-04-06T07:12:16.439Z,99036.66
2019-04-06T07:14:42.594Z,99039.92
2019-04-06T07:17:08.904Z,99047.09
2019-04-06T07:19:35.096Z,99042.77
2019-04-06T07:22:01.641Z,99048.95
2019-04-06T07:24:27.846Z,99043.18
2019-04-06T07:26:54.224Z,99046.25
2019-04-06T07:29:20.438Z,99039.27
2019-04-06T07:31:46.615Z,99045.30
2019-04-06T07:34:12.835Z,99045.17
2019-04-06T07:36:39.126Z,99049.58
2019-04-06T07:39:05.285Z,99044.02
2019-04-06T07:41:31.490Z,99050.22
2019-04-06T07:43:57.662Z,99044.68
2019-04-06T07:46:23.860Z,99039.49
2019-04-06T07:48:50.128Z,99044.92
2019-04-06T07:51:16.411Z,99040.42
2019-04-06T07:53:42.667Z,99043.84
2019-04-06T07:56:08.880Z,99036.05
2019-04-06T07:58:35.166Z,99046.71
2019-04-06T08:01:01.484Z,99041.70
2019-04-06T08:03:27.660Z,99044.53
2019-04-06T08:05:53.935Z,99041.95
2019-04-06T08:08:20.114Z,99039.03
2019-04-06T08:10:47.128Z,99042.77
2019-04-06T08:13:13.292Z,99027.51
2019-04-06T08:15:39.573Z,99025.61
2019-04-06T08:18:05.803Z,99023.56
2019-04-06T08:20:31.938Z,99024.57
2019-04-06T08:22:58.336Z,99028.16
2019-04-06T08:25:24.553Z,99028.73
2019-04-06T08:27:50.734Z,99029.20
2019-04-06T08:30:16.993Z,99015.38
2019-04-06T08:32:43.309Z,99024.35
2019-04-06T08:35:10.083Z,99004.06
2019-04-06T08:37:36.515Z,99019.52
2019-04-06T08:40:05.367Z,99014.84
2019-04-06T08:42:31.859Z,99006.08
2019-04-06T08:44:58.220Z,99002.80
2019-04-06T08:47:24.544Z,98996.44
2019-04-06T08:49:50.829Z,98990.91
2019-04-06T08:52:16.989Z,98984.13
2019-04-06T08:54:43.207Z,98992.34
2019-04-06T08:57:09.509Z,98993.59
2019-04-06T08:59:35.817Z,98990.36
2019-04-06T09:02:02.196Z,98995.61
2019-04-06T09:04:28.464Z,98985.70
2019-04-06T09:06:54.751Z,98993.58
2019-04-06T09:09:20.926Z,98983.27
2019-04-06T09:11:47.240Z,98996.98
2019-04-06T09:14:13.488Z,98999.52
2019-04-06T09:16:39.739Z,98991.36
2019-04-06T09:19:06.148Z,98992.13
2019-04-06T09:21:32.471Z,98984.77
2019-04-06T09:23:59.300Z,98981.87
2019-04-06T09:26:25.872Z,98984.92
2019-04-06T09:28:52.137Z,98975.94
2019-04-06T09:31:18.387Z,98976.84
2019-04-06T09:33:44.645Z,98977.06
2019-04-06T09:36:10.965Z,98974.60
2019-04-06T09:38:37.159Z,98968.33
2019-04-06T09:41:03.459Z,98976.55
2019-04-06T09:43:30.536Z,98975.76
2019-04-06T09:46:15.669Z,98971.97
2019-04-06T09:49:00.381Z,98956.42
2019-04-06T09:51:31.660Z,98954.09
2019-04-06T09:54:06.663Z,98961.12
2019-04-06T09:56:49.645Z,98967.58
2019-04-06T09:59:17.730Z,98976.84
2019-04-06T10:01:54.826Z,98968.11
2019-04-06T10:04:39.674Z,98965.97
2019-04-06T10:07:07.954Z,98966.73
2019-04-06T10:09:50.886Z,98972.70
2019-04-06T10:12:34.531Z,98964.35
2019-04-06T10:15:05.418Z,98958.25
2019-04-06T10:17:39.256Z,98956.73
2019-04-06T10:20:14.784Z,98962.34
2019-04-06T10:22:49.344Z,98944.99
2019-04-06T10:25:34.400Z,98948.25
2019-04-06T10:28:08.581Z,98953.06
2019-04-06T10:30:36.646Z,98941.22
2019-04-06T10:33:07.543Z,98937.41
2019-04-06T10:35:44.945Z,98943.52
2019-04-06T10:38:25.105Z,98931.89
2019-04-06T10:40:59.254Z,98936.45
2019-04-06T10:43:30.378Z,98917.77
2019-04-06T10:46:01.371Z,98914.83
2019-04-06T10:48:29.509Z,98912.30
2019-04-06T10:51:03.903Z,98912.48
2019-04-06T10:53:31.942Z,98916.08
2019-04-06T10:56:02.916Z,98930.66
2019-04-06T10:58:47.318Z,98918.13
2019-04-06T11:01:30.351Z,98916.66
2019-04-06T11:04:00.969Z,98907.48
2019-04-06T11:06:46.893Z,98904.15
2019-04-06T11:09:17.928Z,98899.69
2019-04-06T11:11:46.047Z,98897.84
2019-04-06T11:14:14.211Z,98915.53
2019-04-06T11:16:48.361Z,98901.84
2019-04-06T11:19:33.021Z,98895.30
2019-04-06T11:24:53.728Z,98886.56
2019-04-06T11:27:39.121Z,98890.88
2019-04-06T11:30:13.583Z,98881.97
2019-04-06T11:32:41.640Z,98877.65
2019-04-06T11:35:15.502Z,98877.64
2019-04-06T11:38:00.211Z,98867.67
2019-04-06T11:40:30.789Z,98861.33
2019-04-06T11:43:04.518Z,98866.28
2019-04-06T11:45:32.704Z,98861.34
2019-04-06T11:48:17.314Z,98860.58
2019-04-06T11:51:01.741Z,98843.06
2019-04-06T11:53:29.871Z,98854.70
2019-04-06T11:55:58.049Z,98853.41
2019-04-06T11:58:32.081Z,98846.75
2019-04-06T12:01:01.286Z,98841.55
2019-04-06T12:03:46.462Z,98845.91
2019-04-06T12:06:14.538Z,98846.70
2019-04-06T12:08:42.798Z,98841.27
2019-04-06T12:11:13.444Z,98842.51
2019-04-06T12:13:41.535Z,98837.45
2019-04-06T12:16:25.901Z,98832.38
2019-04-06T12:18:59.539Z,98831.85
2019-04-06T12:24:19.427Z,98817.49
2019-04-06T12:26:53.306Z,98816.39
2019-04-06T12:29:33.234Z,98820.52
2019-04-06T12:32:01.770Z,98823.86
2019-04-06T12:37:26.095Z,98809.52
2019-04-06T12:39:54.763Z,98817.70
2019-04-06T12:42:23.053Z,98824.74
2019-04-06T12:44:54.191Z,98815.69
2019-04-06T12:47:25.363Z,98814.75
2019-04-06T12:50:09.784Z,98815.92
2019-04-06T12:55:47.688Z,98806.80
2019-04-06T12:58:15.768Z,98804.33
2019-04-06T13:00:56.057Z,98810.28
2019-04-06T13:03:24.188Z,98812.27
2019-04-06T13:08:55.157Z,98803.36
2019-04-06T13:11:39.896Z,98798.78
2019-04-06T13:14:10.947Z,98794.27
2019-04-06T13:16:39.111Z,98795.64
2019-04-06T13:19:23.528Z,98796.79
2019-04-06T13:21:51.679Z,98789.52
2019-04-06T13:24:29.009Z,98785.27
2019-04-06T13:27:08.941Z,98788.13
2019-04-06T13:29:40.196Z,98783.95
2019-04-06T13:32:08.242Z,98784.27
2019-04-06T13:34:36.322Z,98779.05
2019-04-06T13:37:19.503Z,98779.22
2019-04-06T13:39:47.578Z,98779.34
2019-04-06T13:42:24.544Z,98779.17
2019-04-06T13:44:52.578Z,98778.03
2019-04-06T13:47:32.503Z,98787.61
2019-04-06T13:50:06.646Z,98786.25
2019-04-06T13:52:51.686Z,98789.27
2019-04-06T13:55:28.491Z,98787.59
2019-04-06T13:58:08.632Z,98772.59
2019-04-06T14:00:51.909Z,98792.99
2019-04-06T14:03:36.617Z,98791.69
2019-04-06T14:06:10.530Z,98792.89
2019-04-06T14:08:38.659Z,98790.15
2019-04-06T14:11:12.543Z,98787.98
2019-04-06T14:13:46.587Z,98788.77
2019-04-06T14:16:17.320Z,98797.04
2019-04-06T14:18:45.454Z,98787.19
2019-04-06T14:21:16.565Z,98795.45
2019-04-06T14:23:44.647Z,98803.67
2019-04-06T14:26:21.886Z,98793.65
2019-04-06T14:28:52.914Z,98797.92
2019-04-06T14:31:29.873Z,98790.86
2019-04-06T14:34:12.491Z,98796.36
2019-04-06T14:36:46.394Z,98795.42
2019-04-06T14:39:26.182Z,98790.81
2019-04-06T14:42:02.845Z,98794.80
2019-04-06T14:47:38.228Z,98786.36
2019-04-06T14:50:23.059Z,98792.48
2019-04-06T14:53:08.237Z,98792.78
2019-04-06T14:55:54.552Z,98796.59
2019-04-06T14:58:28.611Z,98797.53
2019-04-06T15:01:05.526Z,98798.22
2019-04-06T15:03:45.790Z,98792.84
2019-04-06T15:06:13.869Z,98799.10
2019-04-06T15:08:53.962Z,98812.41
2019-04-06T15:11:28.117Z,98804.42
2019-04-06T15:14:05.033Z,98812.55
2019-04-06T15:16:33.463Z,98810.95
2019-04-06T15:19:04.892Z,98814.26
2019-04-06T15:21:49.269Z,98810.22
2019-04-06T15:24:29.225Z,98813.25
2019-04-06T15:27:03.330Z,98812.70
2019-04-06T15:29:31.428Z,98816.23
2019-04-06T15:32:03.440Z,98813.59
2019-04-06T15:34:48.284Z,98817.28
2019-04-06T15:37:16.399Z,98814.98
2019-04-06T15:42:40.363Z,98822.19
2019-04-06T15:45:08.645Z,98818.34
2019-04-06T15:47:39.785Z,98817.34
2019-04-06T15:50:11.417Z,98828.75
2019-04-06T15:52:39.912Z,98831.49
2019-04-06T15:55:08.840Z,98829.76
2019-04-06T15:57:37.011Z,98830.70
2019-04-06T16:00:08.717Z,98828.05
2019-04-06T16:02:53.396Z,98834.47
2019-04-06T16:05:30.337Z,98829.58
2019-04-06T16:08:13.580Z,98837.17
2019-04-06T16:13:32.185Z,98838.91
2019-04-06T16:16:09.275Z,98840.28
2019-04-06T16:18:37.445Z,98838.89
2019-04-06T16:21:08.405Z,98845.27
2019-04-06T16:23:48.518Z,98846.16
2019-04-06T16:26:19.755Z,98847.95
2019-04-06T16:29:04.999Z,98851.83
2019-04-06T16:31:35.583Z,98858.42
2019-04-06T16:34:20.818Z,98842.78
2019-04-06T16:36:49.008Z,98857.34
2019-04-06T16:39:33.487Z,98848.81
2019-04-06T16:42:01.861Z,98849.61
2019-04-06T16:44:30.444Z,98859.52
2019-04-06T16:46:58.556Z,98861.67
2019-04-06T16:49:35.826Z,98861.55
2019-04-06T16:52:12.935Z,98858.27
2019-04-06T16:54:41.222Z,98857.30
2019-04-06T16:57:26.522Z,98867.28
2019-04-06T17:00:00.511Z,98859.30
2019-04-06T17:02:45.626Z,98864.30
2019-04-06T17:05:23.121Z,98867.13
2019-04-06T17:08:11.167Z,98869.19
2019-04-06T17:10:38.946Z,98869.31
2019-04-06T17:13:09.749Z,98868.81
2019-04-06T17:15:41.076Z,98874.36
2019-04-06T17:18:12.129Z,98872.02
2019-04-06T17:20:48.839Z,98874.45
2019-04-06T17:23:16.957Z,98880.13
2019-04-06T17:25:49.558Z,98883.70
2019-04-06T17:28:34.092Z,98890.12
2019-04-06T17:31:17.358Z,98890.41
2019-04-06T17:33:57.728Z,98895.84
2019-04-06T17:36:42.328Z,98896.06
2019-04-06T17:39:10.469Z,98896.61
2019-04-06T17:44:46.053Z,98905.73
2019-04-06T17:47:19.837Z,98910.31
2019-04-06T17:50:03.190Z,98912.65
2019-04-06T17:52:37.075Z,98912.82
2019-04-06T17:55:15.627Z,98921.84
2019-04-06T17:57:43.811Z,98921.02
2019-04-06T18:00:15.305Z,98924.48
2019-04-06T18:02:59.733Z,98926.25
2019-04-06T18:05:28.200Z,98934.20
2019-04-06T18:08:05.955Z,98940.66
2019-04-06T18:10:52.795Z,98942.90
2019-04-06T18:13:23.793Z,98938.69
2019-04-06T18:15:49.951Z,98942.20
2019-04-06T18:18:16.328Z,98948.08
2019-04-06T18:20:42.623Z,98955.95
2019-04-06T18:23:08.796Z,98955.16
2019-04-06T18:25:34.959Z,98961.83
2019-04-06T18:28:01.583Z,98965.20
2019-04-06T18:30:27.952Z,98965.50
2019-04-06T18:33:03.666Z,98972.78
2019-04-06T18:35:30.012Z,98968.55
2019-04-06T18:37:58.105Z,98972.77
2019-04-06T18:40:26.327Z,98977.59
2019-04-06T18:42:53.172Z,98968.98
2019-04-06T18:45:19.472Z,98979.33
2019-04-06T18:47:46.224Z,98977.77
2019-04-06T18:50:12.932Z,98979.15
2019-04-06T18:52:39.166Z,98971.63
2019-04-06T18:55:05.543Z,98968.98
2019-04-06T18:57:32.193Z,98978.23
2019-04-06T18:59:58.528Z,98973.83
2019-04-06T19:02:24.826Z,98983.47
2019-04-06T19:04:51.020Z,98980.45
2019-04-06T19:07:17.566Z,98992.78
2019-04-06T19:09:44.137Z,98991.25
2019-04-06T19:12:10.723Z,98984.18
2019-04-06T19:14:37.220Z,98978.17
2019-04-06T19:17:03.687Z,98990.78
2019-04-06T19:19:29.880Z,98992.31
2019-04-06T19:21:56.062Z,98993.67
2019-04-06T19:24:22.353Z,98992.41
2019-04-06T19:26:48.899Z,98993.28
2019-04-06T19:29:15.336Z,98994.00
2019-04-06T19:31:41.490Z,98994.00
2019-04-06T19:34:07.821Z,98993.08
2019-04-06T19:36:34.066Z,98986.08
2019-04-06T19:39:00.621Z,98986.34
2019-04-06T19:41:27.151Z,98986.58
2019-04-06T19:43:53.585Z,98995.78
2019-04-06T19:46:20.219Z,98996.97
2019-04-06T19:48:47.008Z,98993.73
2019-04-06T19:51:13.441Z,98996.69
2019-04-06T19:53:40.041Z,98997.80
2019-04-06T19:56:06.533Z,98992.55
2019-04-06T19:58:32.746Z,98989.48
2019-04-06T20:00:59.020Z,98986.98
2019-04-06T20:03:34.114Z,98994.86
2019-04-06T20:05:53.306Z,98999.75
2019-04-06T20:08:19.503Z,98992.90
2019-04-06T20:10:45.719Z,99002.98
2019-04-06T20:13:12.118Z,98993.63
2019-04-06T20:15:38.828Z,98999.94
2019-04-06T20:18:05.421Z,98999.09
2019-04-06T20:20:31.583Z,99004.78
2019-04-06T20:22:58.111Z,99015.33
2019-04-06T20:25:25.214Z,99001.67
2019-04-06T20:27:52.163Z,99012.41
2019-04-06T20:30:18.853Z,99015.98
2019-04-06T20:32:45.161Z,99010.77
2019-04-06T20:35:12.645Z,99017.63
2019-04-06T20:37:38.833Z,99016.84
2019-04-06T20:40:06.372Z,99013.80
2019-04-06T20:42:32.576Z,99017.78
2019-04-06T20:44:59.148Z,99010.44
2019-04-06T20:47:25.549Z,99002.54
2019-04-06T20:49:51.824Z,99006.59
2019-04-06T20:52:18.318Z,99002.55
2019-04-06T20:54:44.512Z,99011.42
2019-04-06T20:57:10.933Z,99005.44
2019-04-06T20:59:37.252Z,99011.76
2019-04-06T21:02:03.778Z,99008.37
2019-04-06T21:04:29.947Z,99018.16
2019-04-06T21:06:56.138Z,99013.46
2019-04-06T21:09:22.458Z,99015.63
2019-04-06T21:11:49.045Z,99003.52
2019-04-06T21:14:15.828Z,99014.64
2019-04-06T21:16:42.144Z,99019.03
2019-04-06T21:19:08.318Z,99013.27
2019-04-06T21:21:35.247Z,99010.22
2019-04-06T21:24:01.635Z,99012.44
2019-04-06T21:26:27.832Z,99007.77
2019-04-06T21:28:53.990Z,99013.25
2019-04-06T21:31:20.179Z,99022.31
2019-04-06T21:33:46.761Z,99009.70
2019-04-06T21:36:13.426Z,99013.00
2019-04-06T21:38:40.068Z,99011.08
2019-04-06T21:41:06.973Z,99006.41
2019-04-06T21:43:33.408Z,99004.48
2019-04-06T21:46:00.078Z,99009.10
2019-04-06T21:48:27.009Z,99000.09
2019-04-06T21:50:53.305Z,99005.56
2019-04-06T21:53:19.742Z,98997.66
2019-04-06T21:55:45.978Z,98996.27
2019-04-06T21:58:12.239Z,98998.45
2019-04-06T22:00:49.854Z,98992.98
2019-04-06T22:03:16.676Z,98992.98
2019-04-06T22:05:53.967Z,98991.36
2019-04-06T22:08:23.269Z,98998.18
2019-04-06T22:10:50.029Z,98995.44
2019-04-06T22:13:16.368Z,98998.74
2019-04-06T22:15:42.588Z,98995.98
2019-04-06T22:18:08.853Z,98995.03
2019-04-06T22:20:35.575Z,98997.27
2019-04-06T22:23:01.932Z,98994.34
2019-04-06T22:25:28.122Z,98998.99
2019-04-06T22:27:54.280Z,98995.72
2019-04-06T22:30:20.609Z,98998.20
2019-04-06T22:32:46.914Z,98988.00
2019-04-06T22:35:13.526Z,98989.41
2019-04-06T22:37:40.619Z,98987.22
2019-04-06T22:40:07.502Z,98980.00
2019-04-06T22:42:34.262Z,98968.92
2019-04-06T22:45:01.372Z,98968.83
2019-04-06T22:47:27.691Z,98960.77
2019-04-06T22:49:53.871Z,98957.09
2019-04-06T22:52:20.512Z,98957.82
2019-04-06T22:54:46.814Z,98954.38
2019-04-06T22:57:13.503Z,98960.38
2019-04-06T22:59:40.403Z,98964.94
2019-04-06T23:02:06.750Z,98969.58
2019-04-06T23:04:45.739Z,98968.55
2019-04-06T23:07:05.702Z,98960.69
2019-04-06T23:09:32.461Z,98968.52
2019-04-06T23:11:58.772Z,98960.23
2019-04-06T23:14:24.964Z,98959.03
2019-04-06T23:16:51.236Z,98955.45
2019-04-06T23:19:17.577Z,98955.67
2019-04-06T23:21:44.119Z,98950.25
2019-04-06T23:24:11.042Z,98941.44
2019-04-06T23:26:38.099Z,98939.58
2019-04-06T23:29:05.160Z,98934.53
2019-04-06T23:31:31.511Z,98928.73
2019-04-06T23:33:57.662Z,98924.03
2019-04-06T23:36:23.883Z,98927.85
2019-04-06T23:38:50.207Z,98922.05
2019-04-06T23:41:16.430Z,98921.80
2019-04-06T23:43:42.816Z,98923.15
2019-04-06T23:46:09.024Z,98914.64
2019-04-06T23:48:39.155Z,98908.58
2019-04-06T23:51:05.489Z,98912.11
2019-04-06T23:53:31.711Z,98901.70
2019-04-06T23:55:58.615Z,98902.62
2019-04-06T23:58:24.912Z,98894.88
